sensor_id;sensor_type;location;lat;lon;timestamp;P1;durP1;ratioP1;P2;durP2;ratioP2
18503;SDS011;9381;54.244;10.074;2023-02-28T00:03:37;9.65;;;6.20;;
18503;SDS011;9381;54.244;10.074;2023-02-28T00:08:37;11.75;;;6.78;;
18503;SDS011;9381;54.244;10.074;2023-02-28T00:13:39;11.87;;;6.53;;
18503;SDS011;9381;54.244;10.074;2023-02-28T00:18:42;13.07;;;7.27;;
18503;SDS011;9381;54.244;10.074;2023-02-28T00:23:43;10.53;;;7.27;;
18503;SDS011;9381;54.244;10.074;2023-02-28T00:28:43;12.93;;;6.77;;
18503;SDS011;9381;54.244;10.074;2023-02-28T00:33:44;10.90;;;6.80;;
18503;SDS011;9381;54.244;10.074;2023-02-28T00:38:44;11.23;;;6.88;;
18503;SDS011;9381;54.244;10.074;2023-02-28T00:43:44;11.07;;;6.70;;
18503;SDS011;9381;54.244;10.074;2023-02-28T00:48:45;8.87;;;6.60;;
18503;SDS011;9381;54.244;10.074;2023-02-28T00:53:45;11.40;;;7.40;;
18503;SDS011;9381;54.244;10.074;2023-02-28T00:58:45;12.97;;;7.57;;
18503;SDS011;9381;54.244;10.074;2023-02-28T01:03:46;10.05;;;7.43;;
18503;SDS011;9381;54.244;10.074;2023-02-28T01:08:46;14.73;;;7.90;;
18503;SDS011;9381;54.244;10.074;2023-02-28T01:13:47;11.57;;;7.03;;
18503;SDS011;9381;54.244;10.074;2023-02-28T01:18:48;13.83;;;7.63;;
18503;SDS011;9381;54.244;10.074;2023-02-28T01:23:48;15.00;;;6.78;;
18503;SDS011;9381;54.244;10.074;2023-02-28T01:28:50;10.67;;;6.50;;
18503;SDS011;9381;54.244;10.074;2023-02-28T01:33:51;9.50;;;6.53;;
18503;SDS011;9381;54.244;10.074;2023-02-28T01:38:52;13.93;;;7.05;;
18503;SDS011;9381;54.244;10.074;2023-02-28T01:54:18;8.87;;;6.00;;
18503;SDS011;9381;54.244;10.074;2023-02-28T01:59:35;9.40;;;6.20;;
18503;SDS011;9381;54.244;10.074;2023-02-28T02:04:50;14.07;;;7.37;;
18503;SDS011;9381;54.244;10.074;2023-02-28T02:10:00;8.43;;;6.23;;
18503;SDS011;9381;54.244;10.074;2023-02-28T02:30:35;17.40;;;6.60;;
18503;SDS011;9381;54.244;10.074;2023-02-28T02:41:05;10.17;;;6.97;;
18503;SDS011;9381;54.244;10.074;2023-02-28T02:46:16;8.57;;;6.20;;
18503;SDS011;9381;54.244;10.074;2023-02-28T02:51:20;9.37;;;6.80;;
18503;SDS011;9381;54.244;10.074;2023-02-28T02:56:24;8.47;;;5.93;;
18503;SDS011;9381;54.244;10.074;2023-02-28T03:01:28;13.03;;;6.50;;
18503;SDS011;9381;54.244;10.074;2023-02-28T03:06:31;10.77;;;5.90;;
18503;SDS011;9381;54.244;10.074;2023-02-28T03:11:31;7.68;;;5.45;;
18503;SDS011;9381;54.244;10.074;2023-02-28T03:32:55;10.37;;;6.83;;
18503;SDS011;9381;54.244;10.074;2023-02-28T03:38:03;10.33;;;6.33;;
18503;SDS011;9381;54.244;10.074;2023-02-28T03:43:10;11.40;;;6.60;;
18503;SDS011;9381;54.244;10.074;2023-02-28T03:48:18;12.77;;;6.60;;
18503;SDS011;9381;54.244;10.074;2023-02-28T03:58:41;8.13;;;5.83;;
18503;SDS011;9381;54.244;10.074;2023-02-28T04:03:55;9.43;;;5.77;;
18503;SDS011;9381;54.244;10.074;2023-02-28T04:08:55;8.50;;;6.30;;
18503;SDS011;9381;54.244;10.074;2023-02-28T04:13:56;11.05;;;5.80;;
18503;SDS011;9381;54.244;10.074;2023-02-28T04:18:56;9.75;;;6.28;;
18503;SDS011;9381;54.244;10.074;2023-02-28T04:24:02;14.57;;;7.30;;
18503;SDS011;9381;54.244;10.074;2023-02-28T04:29:04;14.03;;;7.83;;
18503;SDS011;9381;54.244;10.074;2023-02-28T04:34:05;10.20;;;7.13;;
18503;SDS011;9381;54.244;10.074;2023-02-28T04:39:06;13.07;;;7.07;;
18503;SDS011;9381;54.244;10.074;2023-02-28T04:44:06;10.07;;;7.55;;
18503;SDS011;9381;54.244;10.074;2023-02-28T04:49:07;8.73;;;6.50;;
18503;SDS011;9381;54.244;10.074;2023-02-28T04:54:10;10.70;;;6.77;;
18503;SDS011;9381;54.244;10.074;2023-02-28T04:59:11;13.77;;;7.90;;
18503;SDS011;9381;54.244;10.074;2023-02-28T05:04:11;13.23;;;7.70;;
18503;SDS011;9381;54.244;10.074;2023-02-28T05:09:11;9.80;;;6.67;;
18503;SDS011;9381;54.244;10.074;2023-02-28T05:14:13;12.13;;;7.63;;
18503;SDS011;9381;54.244;10.074;2023-02-28T05:19:14;15.70;;;8.00;;
18503;SDS011;9381;54.244;10.074;2023-02-28T05:24:14;12.88;;;8.20;;
18503;SDS011;9381;54.244;10.074;2023-02-28T05:29:14;10.67;;;8.33;;
18503;SDS011;9381;54.244;10.074;2023-02-28T05:34:15;12.88;;;9.13;;
18503;SDS011;9381;54.244;10.074;2023-02-28T05:39:16;14.53;;;8.90;;
18503;SDS011;9381;54.244;10.074;2023-02-28T05:44:16;13.32;;;9.07;;
18503;SDS011;9381;54.244;10.074;2023-02-28T05:49:16;10.35;;;8.13;;
18503;SDS011;9381;54.244;10.074;2023-02-28T05:54:16;10.30;;;8.32;;
18503;SDS011;9381;54.244;10.074;2023-02-28T05:59:17;12.77;;;7.90;;
18503;SDS011;9381;54.244;10.074;2023-02-28T06:04:18;12.23;;;8.50;;
18503;SDS011;9381;54.244;10.074;2023-02-28T06:09:19;12.77;;;8.37;;
18503;SDS011;9381;54.244;10.074;2023-02-28T06:14:20;10.27;;;8.13;;
18503;SDS011;9381;54.244;10.074;2023-02-28T06:19:20;12.60;;;8.50;;
18503;SDS011;9381;54.244;10.074;2023-02-28T06:24:23;12.07;;;8.43;;
18503;SDS011;9381;54.244;10.074;2023-02-28T06:29:24;10.73;;;7.47;;
18503;SDS011;9381;54.244;10.074;2023-02-28T06:34:25;10.97;;;8.30;;
18503;SDS011;9381;54.244;10.074;2023-02-28T06:39:25;12.50;;;8.00;;
18503;SDS011;9381;54.244;10.074;2023-02-28T06:44:25;14.25;;;8.60;;
18503;SDS011;9381;54.244;10.074;2023-02-28T06:49:26;14.07;;;7.93;;
18503;SDS011;9381;54.244;10.074;2023-02-28T06:54:27;11.00;;;7.67;;
18503;SDS011;9381;54.244;10.074;2023-02-28T06:59:27;14.57;;;8.33;;
18503;SDS011;9381;54.244;10.074;2023-02-28T07:04:28;14.23;;;8.37;;
18503;SDS011;9381;54.244;10.074;2023-02-28T07:09:28;15.70;;;10.73;;
18503;SDS011;9381;54.244;10.074;2023-02-28T07:14:29;19.17;;;11.23;;
18503;SDS011;9381;54.244;10.074;2023-02-28T07:19:29;12.80;;;8.57;;
18503;SDS011;9381;54.244;10.074;2023-02-28T07:24:30;14.77;;;9.57;;
18503;SDS011;9381;54.244;10.074;2023-02-28T07:29:30;13.33;;;9.73;;
18503;SDS011;9381;54.244;10.074;2023-02-28T07:34:31;14.77;;;10.20;;
18503;SDS011;9381;54.244;10.074;2023-02-28T07:39:31;13.60;;;10.50;;
18503;SDS011;9381;54.244;10.074;2023-02-28T07:44:31;16.60;;;11.18;;
18503;SDS011;9381;54.244;10.074;2023-02-28T07:49:31;14.50;;;11.50;;
18503;SDS011;9381;54.244;10.074;2023-02-28T07:54:32;16.30;;;11.80;;
18503;SDS011;9381;54.244;10.074;2023-02-28T07:59:33;16.20;;;11.20;;
18503;SDS011;9381;54.244;10.074;2023-02-28T08:04:33;13.18;;;9.80;;
18503;SDS011;9381;54.244;10.074;2023-02-28T08:09:33;13.38;;;9.25;;
18503;SDS011;9381;54.244;10.074;2023-02-28T08:14:35;13.00;;;8.80;;
18503;SDS011;9381;54.244;10.074;2023-02-28T08:19:36;10.47;;;7.80;;
18503;SDS011;9381;54.244;10.074;2023-02-28T08:24:36;10.87;;;7.70;;
18503;SDS011;9381;54.244;10.074;2023-02-28T08:29:37;18.37;;;8.37;;
18503;SDS011;9381;54.244;10.074;2023-02-28T08:34:39;13.13;;;7.23;;
18503;SDS011;9381;54.244;10.074;2023-02-28T08:39:40;17.57;;;7.70;;
18503;SDS011;9381;54.244;10.074;2023-02-28T08:44:40;10.47;;;7.50;;
18503;SDS011;9381;54.244;10.074;2023-02-28T08:49:41;10.57;;;7.60;;
18503;SDS011;9381;54.244;10.074;2023-02-28T08:54:41;9.37;;;6.70;;
18503;SDS011;9381;54.244;10.074;2023-02-28T08:59:42;11.43;;;7.03;;
18503;SDS011;9381;54.244;10.074;2023-02-28T09:04:42;12.37;;;7.37;;
18503;SDS011;9381;54.244;10.074;2023-02-28T09:09:45;11.33;;;7.50;;
18503;SDS011;9381;54.244;10.074;2023-02-28T09:14:54;12.17;;;7.73;;
18503;SDS011;9381;54.244;10.074;2023-02-28T09:19:54;11.33;;;5.90;;
18503;SDS011;9381;54.244;10.074;2023-02-28T09:24:56;11.73;;;6.70;;
18503;SDS011;9381;54.244;10.074;2023-02-28T09:29:56;13.93;;;7.10;;
18503;SDS011;9381;54.244;10.074;2023-02-28T09:34:57;9.57;;;6.50;;
18503;SDS011;9381;54.244;10.074;2023-02-28T09:39:57;10.43;;;6.27;;
18503;SDS011;9381;54.244;10.074;2023-02-28T09:44:58;14.30;;;6.00;;
18503;SDS011;9381;54.244;10.074;2023-02-28T09:55:43;8.47;;;4.73;;
18503;SDS011;9381;54.244;10.074;2023-02-28T10:00:51;5.70;;;3.30;;
18503;SDS011;9381;54.244;10.074;2023-02-28T10:06:14;5.77;;;3.53;;
18503;SDS011;9381;54.244;10.074;2023-02-28T10:11:20;8.00;;;3.60;;
18503;SDS011;9381;54.244;10.074;2023-02-28T10:16:25;7.47;;;3.40;;
18503;SDS011;9381;54.244;10.074;2023-02-28T10:21:39;4.43;;;2.80;;
18503;SDS011;9381;54.244;10.074;2023-02-28T10:26:45;7.73;;;3.60;;
18503;SDS011;9381;54.244;10.074;2023-02-28T10:31:47;4.90;;;3.27;;
18503;SDS011;9381;54.244;10.074;2023-02-28T10:36:47;6.97;;;3.30;;
18503;SDS011;9381;54.244;10.074;2023-02-28T10:41:50;9.23;;;3.20;;
18503;SDS011;9381;54.244;10.074;2023-02-28T10:46:50;4.23;;;2.90;;
18503;SDS011;9381;54.244;10.074;2023-02-28T10:51:55;5.53;;;2.60;;
18503;SDS011;9381;54.244;10.074;2023-02-28T10:57:07;3.17;;;2.03;;
18503;SDS011;9381;54.244;10.074;2023-02-28T11:02:28;2.53;;;1.60;;
18503;SDS011;9381;54.244;10.074;2023-02-28T11:07:31;4.30;;;1.63;;
18503;SDS011;9381;54.244;10.074;2023-02-28T11:12:34;3.80;;;1.67;;
18503;SDS011;9381;54.244;10.074;2023-02-28T11:17:37;3.17;;;1.73;;
18503;SDS011;9381;54.244;10.074;2023-02-28T11:22:39;2.43;;;1.70;;
18503;SDS011;9381;54.244;10.074;2023-02-28T11:27:46;2.10;;;1.50;;
18503;SDS011;9381;54.244;10.074;2023-02-28T11:32:50;2.07;;;1.37;;
18503;SDS011;9381;54.244;10.074;2023-02-28T11:37:50;3.60;;;1.80;;
18503;SDS011;9381;54.244;10.074;2023-02-28T11:48:04;4.17;;;1.50;;
18503;SDS011;9381;54.244;10.074;2023-02-28T11:53:20;1.93;;;1.57;;
18503;SDS011;9381;54.244;10.074;2023-02-28T11:58:31;2.67;;;1.83;;
18503;SDS011;9381;54.244;10.074;2023-02-28T12:04:01;5.40;;;1.93;;
18503;SDS011;9381;54.244;10.074;2023-02-28T12:09:36;2.47;;;1.40;;
18503;SDS011;9381;54.244;10.074;2023-02-28T12:20:16;3.67;;;1.97;;
18503;SDS011;9381;54.244;10.074;2023-02-28T12:30:37;2.47;;;1.53;;
18503;SDS011;9381;54.244;10.074;2023-02-28T12:36:03;2.33;;;1.90;;
18503;SDS011;9381;54.244;10.074;2023-02-28T12:41:54;1.93;;;1.70;;
18503;SDS011;9381;54.244;10.074;2023-02-28T12:46:50;4.23;;;2.00;;
18503;SDS011;9381;54.244;10.074;2023-02-28T12:51:54;3.43;;;2.03;;
18503;SDS011;9381;54.244;10.074;2023-02-28T13:13:18;2.30;;;2.10;;
18503;SDS011;9381;54.244;10.074;2023-02-28T13:18:32;6.00;;;1.70;;
18503;SDS011;9381;54.244;10.074;2023-02-28T13:28:57;2.97;;;2.23;;
18503;SDS011;9381;54.244;10.074;2023-02-28T13:34:12;3.50;;;1.60;;
18503;SDS011;9381;54.244;10.074;2023-02-28T13:44:45;3.27;;;2.10;;
18503;SDS011;9381;54.244;10.074;2023-02-28T14:06:18;4.03;;;2.40;;
18503;SDS011;9381;54.244;10.074;2023-02-28T14:11:26;3.87;;;2.40;;
18503;SDS011;9381;54.244;10.074;2023-02-28T14:16:36;2.93;;;2.20;;
18503;SDS011;9381;54.244;10.074;2023-02-28T14:21:45;4.30;;;2.27;;
18503;SDS011;9381;54.244;10.074;2023-02-28T14:32:45;3.80;;;2.00;;
18503;SDS011;9381;54.244;10.074;2023-02-28T14:37:51;2.23;;;1.80;;
18503;SDS011;9381;54.244;10.074;2023-02-28T14:43:00;2.93;;;1.93;;
18503;SDS011;9381;54.244;10.074;2023-02-28T14:48:02;2.73;;;2.40;;
18503;SDS011;9381;54.244;10.074;2023-02-28T14:53:11;4.70;;;2.40;;
18503;SDS011;9381;54.244;10.074;2023-02-28T14:58:23;3.93;;;2.67;;
18503;SDS011;9381;54.244;10.074;2023-02-28T15:03:32;3.80;;;2.80;;
18503;SDS011;9381;54.244;10.074;2023-02-28T15:08:35;6.47;;;2.77;;
18503;SDS011;9381;54.244;10.074;2023-02-28T15:13:40;3.93;;;2.23;;
18503;SDS011;9381;54.244;10.074;2023-02-28T15:18:50;5.33;;;2.57;;
18503;SDS011;9381;54.244;10.074;2023-02-28T15:23:59;5.53;;;3.13;;
18503;SDS011;9381;54.244;10.074;2023-02-28T15:29:10;5.10;;;2.97;;
18503;SDS011;9381;54.244;10.074;2023-02-28T15:39:43;3.97;;;3.00;;
18503;SDS011;9381;54.244;10.074;2023-02-28T15:44:44;6.10;;;3.63;;
18503;SDS011;9381;54.244;10.074;2023-02-28T15:54:51;5.73;;;3.50;;
18503;SDS011;9381;54.244;10.074;2023-02-28T15:59:55;3.67;;;2.70;;
18503;SDS011;9381;54.244;10.074;2023-02-28T16:10:00;3.97;;;3.20;;
18503;SDS011;9381;54.244;10.074;2023-02-28T16:15:03;5.37;;;3.33;;
18503;SDS011;9381;54.244;10.074;2023-02-28T16:20:18;5.10;;;2.83;;
18503;SDS011;9381;54.244;10.074;2023-02-28T16:25:28;3.03;;;2.67;;
18503;SDS011;9381;54.244;10.074;2023-02-28T16:30:40;5.43;;;3.40;;
18503;SDS011;9381;54.244;10.074;2023-02-28T16:35:40;5.78;;;3.58;;
18503;SDS011;9381;54.244;10.074;2023-02-28T16:40:40;4.73;;;3.70;;
18503;SDS011;9381;54.244;10.074;2023-02-28T16:45:41;7.37;;;3.63;;
18503;SDS011;9381;54.244;10.074;2023-02-28T16:50:42;4.43;;;3.50;;
18503;SDS011;9381;54.244;10.074;2023-02-28T16:55:44;5.27;;;3.40;;
18503;SDS011;9381;54.244;10.074;2023-02-28T17:00:45;5.67;;;3.70;;
18503;SDS011;9381;54.244;10.074;2023-02-28T17:05:45;3.83;;;3.27;;
18503;SDS011;9381;54.244;10.074;2023-02-28T17:10:45;3.73;;;3.30;;
18503;SDS011;9381;54.244;10.074;2023-02-28T17:15:46;5.03;;;3.90;;
18503;SDS011;9381;54.244;10.074;2023-02-28T17:20:47;4.23;;;3.70;;
18503;SDS011;9381;54.244;10.074;2023-02-28T17:25:48;4.87;;;3.80;;
18503;SDS011;9381;54.244;10.074;2023-02-28T17:30:53;6.47;;;4.10;;
18503;SDS011;9381;54.244;10.074;2023-02-28T17:35:53;4.68;;;4.00;;
18503;SDS011;9381;54.244;10.074;2023-02-28T17:40:53;6.57;;;5.03;;
18503;SDS011;9381;54.244;10.074;2023-02-28T17:45:57;8.07;;;5.23;;
18503;SDS011;9381;54.244;10.074;2023-02-28T17:50:58;8.60;;;5.70;;
18503;SDS011;9381;54.244;10.074;2023-02-28T17:55:58;8.43;;;6.00;;
18503;SDS011;9381;54.244;10.074;2023-02-28T18:00:59;6.77;;;5.57;;
18503;SDS011;9381;54.244;10.074;2023-02-28T18:05:59;7.47;;;5.20;;
18503;SDS011;9381;54.244;10.074;2023-02-28T18:11:01;7.23;;;5.13;;
18503;SDS011;9381;54.244;10.074;2023-02-28T18:16:01;8.37;;;5.43;;
18503;SDS011;9381;54.244;10.074;2023-02-28T18:21:03;8.53;;;6.47;;
18503;SDS011;9381;54.244;10.074;2023-02-28T18:26:08;9.00;;;6.73;;
18503;SDS011;9381;54.244;10.074;2023-02-28T18:31:08;13.13;;;8.07;;
18503;SDS011;9381;54.244;10.074;2023-02-28T18:36:11;11.20;;;7.70;;
18503;SDS011;9381;54.244;10.074;2023-02-28T18:41:11;10.18;;;7.47;;
18503;SDS011;9381;54.244;10.074;2023-02-28T18:46:15;11.33;;;7.87;;
18503;SDS011;9381;54.244;10.074;2023-02-28T18:51:18;8.23;;;6.80;;
18503;SDS011;9381;54.244;10.074;2023-02-28T18:56:23;9.97;;;7.93;;
18503;SDS011;9381;54.244;10.074;2023-02-28T19:01:25;12.07;;;8.10;;
18503;SDS011;9381;54.244;10.074;2023-02-28T19:06:29;47.87;;;27.43;;
18503;SDS011;9381;54.244;10.074;2023-02-28T19:11:30;60.67;;;36.67;;
18503;SDS011;9381;54.244;10.074;2023-02-28T19:16:31;47.40;;;29.30;;
18503;SDS011;9381;54.244;10.074;2023-02-28T19:21:32;26.23;;;17.53;;
18503;SDS011;9381;54.244;10.074;2023-02-28T19:26:35;20.27;;;12.83;;
18503;SDS011;9381;54.244;10.074;2023-02-28T19:31:35;13.07;;;10.57;;
18503;SDS011;9381;54.244;10.074;2023-02-28T19:36:37;15.87;;;10.70;;
18503;SDS011;9381;54.244;10.074;2023-02-28T19:41:37;15.33;;;9.90;;
18503;SDS011;9381;54.244;10.074;2023-02-28T19:46:38;13.63;;;9.67;;
18503;SDS011;9381;54.244;10.074;2023-02-28T19:51:39;10.90;;;8.93;;
18503;SDS011;9381;54.244;10.074;2023-02-28T19:56:40;13.50;;;9.40;;
18503;SDS011;9381;54.244;10.074;2023-02-28T20:01:40;13.32;;;9.55;;
18503;SDS011;9381;54.244;10.074;2023-02-28T20:06:41;14.63;;;9.23;;
18503;SDS011;9381;54.244;10.074;2023-02-28T20:11:41;11.60;;;8.40;;
18503;SDS011;9381;54.244;10.074;2023-02-28T20:16:43;12.73;;;9.63;;
18503;SDS011;9381;54.244;10.074;2023-02-28T20:21:44;16.73;;;11.20;;
18503;SDS011;9381;54.244;10.074;2023-02-28T20:26:45;18.58;;;12.98;;
18503;SDS011;9381;54.244;10.074;2023-02-28T20:31:45;18.87;;;13.67;;
18503;SDS011;9381;54.244;10.074;2023-02-28T20:36:46;20.07;;;13.87;;
18503;SDS011;9381;54.244;10.074;2023-02-28T20:41:46;19.55;;;13.82;;
18503;SDS011;9381;54.244;10.074;2023-02-28T20:46:46;16.10;;;12.00;;
18503;SDS011;9381;54.244;10.074;2023-02-28T20:51:47;18.45;;;12.80;;
18503;SDS011;9381;54.244;10.074;2023-02-28T20:56:47;19.63;;;12.83;;
18503;SDS011;9381;54.244;10.074;2023-02-28T21:01:47;21.70;;;12.98;;
18503;SDS011;9381;54.244;10.074;2023-02-28T21:06:48;24.27;;;14.27;;
18503;SDS011;9381;54.244;10.074;2023-02-28T21:11:51;23.23;;;14.63;;
18503;SDS011;9381;54.244;10.074;2023-02-28T21:16:53;16.90;;;12.47;;
18503;SDS011;9381;54.244;10.074;2023-02-28T21:21:53;19.10;;;13.67;;
18503;SDS011;9381;54.244;10.074;2023-02-28T21:26:54;24.47;;;13.93;;
18503;SDS011;9381;54.244;10.074;2023-02-28T21:31:56;24.10;;;15.33;;
18503;SDS011;9381;54.244;10.074;2023-02-28T21:36:58;24.40;;;16.37;;
18503;SDS011;9381;54.244;10.074;2023-02-28T21:41:58;28.88;;;17.90;;
18503;SDS011;9381;54.244;10.074;2023-02-28T21:47:02;24.27;;;15.33;;
18503;SDS011;9381;54.244;10.074;2023-02-28T21:52:02;18.67;;;13.63;;
18503;SDS011;9381;54.244;10.074;2023-02-28T21:57:03;23.17;;;14.97;;
18503;SDS011;9381;54.244;10.074;2023-02-28T22:02:04;25.30;;;16.33;;
18503;SDS011;9381;54.244;10.074;2023-02-28T22:07:05;21.40;;;15.37;;
18503;SDS011;9381;54.244;10.074;2023-02-28T22:12:05;24.90;;;15.23;;
18503;SDS011;9381;54.244;10.074;2023-02-28T22:17:07;25.87;;;16.23;;
18503;SDS011;9381;54.244;10.074;2023-02-28T22:22:07;23.70;;;15.30;;
18503;SDS011;9381;54.244;10.074;2023-02-28T22:27:08;26.13;;;16.10;;
18503;SDS011;9381;54.244;10.074;2023-02-28T22:32:08;24.77;;;16.90;;
18503;SDS011;9381;54.244;10.074;2023-02-28T22:37:11;24.80;;;17.30;;
18503;SDS011;9381;54.244;10.074;2023-02-28T22:42:11;26.20;;;16.93;;
18503;SDS011;9381;54.244;10.074;2023-02-28T22:47:12;28.17;;;17.52;;
18503;SDS011;9381;54.244;10.074;2023-02-28T22:52:12;25.63;;;17.42;;
18503;SDS011;9381;54.244;10.074;2023-02-28T22:57:12;26.98;;;18.73;;
18503;SDS011;9381;54.244;10.074;2023-02-28T23:02:13;30.50;;;18.37;;
18503;SDS011;9381;54.244;10.074;2023-02-28T23:07:13;28.97;;;18.37;;
18503;SDS011;9381;54.244;10.074;2023-02-28T23:12:14;26.83;;;17.40;;
18503;SDS011;9381;54.244;10.074;2023-02-28T23:17:14;30.25;;;17.55;;
18503;SDS011;9381;54.244;10.074;2023-02-28T23:22:14;27.37;;;17.00;;
18503;SDS011;9381;54.244;10.074;2023-02-28T23:27:15;28.50;;;17.77;;
18503;SDS011;9381;54.244;10.074;2023-02-28T23:32:15;28.23;;;17.00;;
18503;SDS011;9381;54.244;10.074;2023-02-28T23:37:15;28.42;;;18.50;;
18503;SDS011;9381;54.244;10.074;2023-02-28T23:42:16;31.77;;;19.90;;
18503;SDS011;9381;54.244;10.074;2023-02-28T23:47:16;29.33;;;18.73;;
18503;SDS011;9381;54.244;10.074;2023-02-28T23:52:17;34.63;;;21.13;;
18503;SDS011;9381;54.244;10.074;2023-02-28T23:57:17;37.87;;;21.73;;
